createdAt,value
2019-02-15T00:04:35.126Z,31.27
2019-02-15T00:09:37.561Z,33.33
2019-02-15T00:14:48.801Z,31.67
2019-02-15T00:19:54.169Z,32.63
2019-02-15T00:24:56.622Z,31.97
2019-02-15T00:29:59.062Z,30.83
2019-02-15T00:35:01.510Z,29.40
2019-02-15T00:40:03.973Z,30.13
2019-02-15T00:45:06.407Z,30.50
2019-02-15T00:50:08.873Z,28.77
2019-02-15T00:55:26.478Z,29.27
2019-02-15T01:00:28.926Z,28.70
2019-02-15T01:05:31.364Z,28.37
2019-02-15T01:10:36.633Z,28.27
2019-02-15T01:15:39.079Z,27.93
2019-02-15T01:20:41.528Z,30.23
2019-02-15T01:25:44.005Z,27.43
2019-02-15T01:30:52.616Z,29.50
2019-02-15T01:35:55.050Z,30.73
2019-02-15T01:41:00.126Z,28.33
2019-02-15T01:46:08.120Z,28.97
2019-02-15T01:51:10.554Z,30.57
2019-02-15T01:56:13.000Z,30.37
2019-02-15T02:01:15.425Z,29.73
2019-02-15T02:06:17.854Z,29.53
2019-02-15T02:11:20.296Z,30.00
2019-02-15T02:16:22.746Z,32.33
2019-02-15T02:21:25.183Z,29.77
2019-02-15T02:26:27.611Z,30.87
2019-02-15T02:31:30.086Z,30.00
2019-02-15T02:36:47.649Z,30.07
2019-02-15T02:41:50.092Z,29.37
2019-02-15T02:46:52.526Z,32.13
2019-02-15T02:51:54.985Z,31.27
2019-02-15T02:56:57.424Z,30.37
2019-02-15T03:01:59.851Z,31.97
2019-02-15T03:07:02.295Z,31.83
2019-02-15T03:12:04.732Z,30.93
2019-02-15T03:17:07.147Z,29.20
2019-02-15T03:22:09.585Z,30.93
2019-02-15T03:27:12.020Z,31.63
2019-02-15T03:32:14.486Z,34.17
2019-02-15T03:37:16.918Z,33.13
2019-02-15T03:42:19.356Z,31.20
2019-02-15T03:47:21.791Z,34.17
2019-02-15T03:52:24.222Z,31.87
2019-02-15T03:57:26.676Z,33.07
2019-02-15T04:02:29.113Z,31.57
2019-02-15T04:07:31.551Z,30.80
2019-02-15T04:12:33.991Z,29.27
2019-02-15T04:17:36.422Z,31.43
2019-02-15T04:22:38.854Z,30.30
2019-02-15T04:27:41.301Z,29.27
2019-02-15T04:32:43.739Z,30.33
2019-02-15T04:37:46.181Z,31.50
2019-02-15T04:42:48.609Z,34.00
2019-02-15T04:47:51.041Z,32.90
2019-02-15T04:52:53.480Z,31.83
2019-02-15T04:57:55.916Z,30.07
2019-02-15T05:02:58.478Z,29.30
2019-02-15T05:08:00.944Z,28.57
2019-02-15T05:13:03.378Z,29.63
2019-02-15T05:18:16.209Z,29.47
2019-02-15T05:23:17.121Z,30.17
2019-02-15T05:28:19.544Z,30.43
2019-02-15T05:33:21.983Z,30.60
2019-02-15T05:38:24.452Z,29.63
2019-02-15T05:43:26.895Z,29.87
2019-02-15T05:48:29.336Z,31.57
2019-02-15T05:53:31.793Z,30.17
2019-02-15T05:58:34.243Z,28.40
2019-02-15T06:03:36.661Z,27.90
2019-02-15T06:08:39.105Z,28.20
2019-02-15T06:13:41.592Z,28.10
2019-02-15T06:18:44.010Z,28.07
2019-02-15T06:23:46.450Z,27.47
2019-02-15T06:28:48.895Z,27.47
2019-02-15T06:33:51.335Z,28.30
2019-02-15T06:38:53.757Z,28.03
2019-02-15T06:43:56.209Z,29.07
2019-02-15T06:48:58.750Z,27.17
2019-02-15T06:54:01.207Z,28.60
2019-02-15T06:59:03.651Z,28.83
2019-02-15T07:04:06.097Z,27.27
2019-02-15T07:09:08.526Z,29.37
2019-02-15T07:14:10.962Z,26.97
2019-02-15T07:19:13.390Z,27.47
2019-02-15T07:24:15.826Z,28.07
2019-02-15T07:29:18.287Z,28.40
2019-02-15T07:34:20.727Z,26.17
2019-02-15T07:39:23.160Z,26.63
2019-02-15T07:44:25.609Z,26.93
2019-02-15T07:49:28.136Z,26.37
2019-02-15T07:54:30.580Z,25.53
2019-02-15T07:59:33.034Z,26.07
2019-02-15T08:04:35.474Z,26.90
2019-02-15T08:09:37.925Z,25.53
2019-02-15T08:14:40.359Z,23.63
2019-02-15T08:19:42.827Z,23.70
2019-02-15T08:24:45.268Z,22.70
2019-02-15T08:29:47.729Z,22.90
2019-02-15T08:34:51.663Z,25.00
2019-02-15T08:39:54.128Z,22.70
2019-02-15T08:44:56.574Z,22.13
2019-02-15T08:49:59.012Z,23.30
2019-02-15T08:55:01.458Z,23.77
2019-02-15T09:00:03.900Z,23.80
2019-02-15T09:05:06.350Z,21.50
2019-02-15T09:10:08.801Z,20.90
2019-02-15T09:15:11.512Z,20.87
2019-02-15T09:20:13.968Z,21.07
2019-02-15T09:25:16.423Z,20.93
2019-02-15T09:30:19.924Z,22.40
2019-02-15T09:35:22.477Z,23.87
2019-02-15T09:40:24.931Z,17.40
2019-02-15T09:45:27.431Z,11.20
2019-02-15T09:50:29.876Z,12.17
2019-02-15T09:55:32.312Z,11.07
2019-02-15T10:00:34.754Z,10.97
2019-02-15T10:05:37.209Z,10.73
2019-02-15T10:10:39.664Z,10.50
2019-02-15T10:15:42.224Z,10.50
2019-02-15T10:20:44.603Z,10.53
2019-02-15T10:25:47.059Z,10.40
2019-02-15T10:30:49.512Z,9.87
2019-02-15T10:35:51.961Z,9.40
2019-02-15T10:40:54.401Z,11.23
2019-02-15T10:45:56.849Z,9.40
2019-02-15T10:50:59.428Z,9.97
2019-02-15T10:56:01.873Z,9.57
2019-02-15T11:01:04.310Z,10.30
2019-02-15T11:06:06.759Z,9.17
2019-02-15T11:11:09.204Z,8.83
2019-02-15T11:16:11.672Z,7.97
2019-02-15T11:21:14.101Z,8.20
2019-02-15T11:26:24.549Z,9.07
2019-02-15T11:31:18.975Z,9.37
2019-02-15T11:36:21.409Z,8.50
2019-02-15T11:41:23.854Z,8.40
2019-02-15T11:46:26.291Z,8.87
2019-02-15T11:51:28.741Z,8.40
2019-02-15T11:56:31.183Z,8.00
2019-02-15T12:01:33.616Z,8.37
2019-02-15T12:06:36.047Z,8.00
2019-02-15T12:11:38.478Z,7.57
2019-02-15T12:16:40.910Z,7.97
2019-02-15T12:21:43.346Z,8.67
2019-02-15T12:26:45.776Z,7.20
2019-02-15T12:31:48.233Z,7.27
2019-02-15T12:36:50.676Z,7.17
2019-02-15T12:41:53.124Z,6.10
2019-02-15T12:46:55.570Z,6.53
2019-02-15T12:51:58.142Z,5.20
2019-02-15T12:57:00.575Z,4.37
2019-02-15T13:02:03.018Z,4.30
2019-02-15T13:07:05.458Z,5.17
2019-02-15T13:12:07.901Z,3.90
2019-02-15T13:17:10.353Z,4.90
2019-02-15T13:22:12.792Z,4.00
2019-02-15T13:27:15.222Z,5.30
2019-02-15T13:32:17.655Z,4.13
2019-02-15T13:37:20.107Z,3.70
2019-02-15T13:42:22.539Z,5.50
2019-02-15T13:47:34.010Z,5.70
2019-02-15T13:52:27.424Z,5.40
2019-02-15T13:57:29.869Z,5.87
2019-02-15T14:02:32.340Z,5.37
2019-02-15T14:07:34.777Z,5.33
2019-02-15T14:12:37.227Z,6.80
2019-02-15T14:17:44.920Z,6.37
2019-02-15T14:22:42.129Z,6.10
2019-02-15T14:27:44.554Z,5.83
2019-02-15T14:32:47.047Z,6.07
2019-02-15T14:37:49.484Z,5.80
2019-02-15T14:42:51.928Z,5.23
2019-02-15T14:47:55.462Z,5.80
2019-02-15T14:52:56.808Z,5.60
2019-02-15T14:57:59.284Z,5.53
2019-02-15T15:03:01.732Z,5.10
2019-02-15T15:08:04.208Z,6.30
2019-02-15T15:13:06.684Z,5.87
2019-02-15T15:18:13.016Z,5.80
2019-02-15T15:23:11.543Z,5.87
2019-02-15T15:28:13.967Z,5.70
2019-02-15T15:33:16.415Z,6.77
2019-02-15T15:38:19.979Z,5.60
2019-02-15T15:43:22.422Z,5.40
2019-02-15T15:48:24.867Z,6.23
2019-02-15T15:53:27.338Z,6.30
2019-02-15T15:58:29.795Z,5.97
2019-02-15T16:03:32.266Z,7.17
2019-02-15T16:08:34.713Z,7.93
2019-02-15T16:13:37.160Z,7.30
2019-02-15T16:18:39.599Z,7.70
2019-02-15T16:23:42.060Z,6.80
2019-02-15T16:28:44.562Z,6.60
2019-02-15T16:33:47.078Z,7.07
2019-02-15T16:38:49.466Z,6.00
2019-02-15T16:43:52.016Z,6.27
2019-02-15T16:48:54.456Z,6.07
2019-02-15T16:53:56.916Z,5.70
2019-02-15T16:58:59.392Z,5.80
2019-02-15T17:04:01.855Z,5.90
2019-02-15T17:09:04.306Z,6.23
2019-02-15T17:14:06.760Z,6.40
2019-02-15T17:19:09.189Z,7.10
2019-02-15T17:24:11.630Z,6.27
2019-02-15T17:29:14.085Z,5.77
2019-02-15T17:34:16.548Z,5.43
2019-02-15T17:39:18.984Z,5.47
2019-02-15T17:44:21.429Z,6.00
2019-02-15T17:49:23.880Z,5.40
2019-02-15T17:54:26.325Z,5.47
2019-02-15T17:59:28.790Z,6.10
2019-02-15T18:04:31.301Z,7.53
2019-02-15T18:09:33.740Z,8.33
2019-02-15T18:14:36.181Z,8.73
2019-02-15T18:19:46.898Z,8.53
2019-02-15T18:24:41.064Z,8.50
2019-02-15T18:29:43.530Z,9.00
2019-02-15T18:34:45.971Z,9.83
2019-02-15T18:39:48.549Z,10.00
2019-02-15T18:44:51.274Z,9.50
2019-02-15T18:49:53.727Z,9.47
2019-02-15T18:54:56.183Z,10.50
2019-02-15T18:59:58.675Z,9.50
2019-02-15T19:05:01.303Z,10.30
2019-02-15T19:10:03.763Z,11.67
2019-02-15T19:15:06.212Z,11.47
2019-02-15T19:20:08.678Z,11.87
2019-02-15T19:25:11.107Z,11.83
2019-02-15T19:30:13.586Z,13.03
2019-02-15T19:35:16.044Z,13.43
2019-02-15T19:40:18.476Z,12.57
2019-02-15T19:45:20.937Z,11.57
2019-02-15T19:50:23.389Z,11.50
2019-02-15T19:55:25.837Z,11.40
2019-02-15T20:00:28.289Z,12.60
2019-02-15T20:05:30.738Z,12.20
2019-02-15T20:10:33.202Z,13.50
2019-02-15T20:15:35.647Z,12.43
2019-02-15T20:20:38.098Z,14.83
2019-02-15T20:25:40.535Z,15.93
2019-02-15T20:30:43.032Z,15.97
2019-02-15T20:35:45.462Z,13.57
2019-02-15T20:40:48.080Z,14.60
2019-02-15T20:45:50.338Z,11.80
2019-02-15T20:50:52.806Z,10.90
2019-02-15T20:55:55.251Z,9.97
2019-02-15T21:00:57.731Z,10.40
2019-02-15T21:06:00.176Z,9.63
2019-02-15T21:11:02.603Z,9.73
2019-02-15T21:16:05.060Z,9.70
2019-02-15T21:21:07.517Z,9.17
2019-02-15T21:26:09.985Z,9.10
2019-02-15T21:31:12.449Z,10.13
2019-02-15T21:36:14.989Z,9.77
2019-02-15T21:41:17.468Z,9.00
2019-02-15T21:46:19.914Z,9.30
2019-02-15T21:51:22.360Z,8.47
2019-02-15T21:56:24.795Z,9.10
2019-02-15T22:01:27.276Z,9.63
2019-02-15T22:06:29.732Z,9.33
2019-02-15T22:11:32.169Z,9.43
2019-02-15T22:16:34.616Z,9.77
2019-02-15T22:21:37.058Z,9.00
2019-02-15T22:26:39.512Z,9.77
2019-02-15T22:31:41.942Z,9.00
2019-02-15T22:36:44.386Z,8.93
2019-02-15T22:41:46.846Z,9.20
2019-02-15T22:46:49.288Z,9.30
2019-02-15T22:51:51.724Z,10.40
2019-02-15T22:56:54.179Z,10.27
2019-02-15T23:01:56.627Z,10.40
2019-02-15T23:06:59.071Z,9.40
2019-02-15T23:12:01.510Z,10.17
2019-02-15T23:17:03.964Z,9.63
2019-02-15T23:22:06.418Z,9.50
2019-02-15T23:27:08.864Z,9.73
2019-02-15T23:32:11.294Z,10.53
2019-02-15T23:37:13.738Z,12.87
2019-02-15T23:42:16.186Z,12.20
2019-02-15T23:47:18.640Z,11.23
2019-02-15T23:52:21.083Z,11.93
2019-02-15T23:57:23.531Z,12.23
